Orbital elements of COSMOS 1275 DEB
| Launched | 3 June 1981 |
| Flight ended | – |
| Launch site | Plesetsk Missile and Space Complex, Russia |
| Owner | Commonwealth of Independent States (former USSR) |
| NORAD ID | 42180 |
| Date fetched |
Epoch osculation |
Inc. [°] |
Ecc. | RA asc node [hr] |
Arg Peri. [°] |
Mean anom [°] |
Mean motion [rev/day] |
Abs. mag |
| Date fetched |
Epoch osculation |
Inc. [°] |
Ecc. | RA asc node [hr] |
Arg Peri. [°] |
Mean anom [°] |
Mean motion [rev/day] |
Abs. mag |
| 2026 May 08 17:57 | 2026 May 05 09:37:33 | 82.8523 | 0.00059 | 23.5570 | 154.2629 | 24.7993 | 14.96271 | – |
| 2026 May 07 17:58 | 2026 May 05 09:37:33 | 82.8523 | 0.00059 | 23.5570 | 154.2629 | 24.7993 | 14.96271 | – |
| 2026 May 06 17:57 | 2026 May 05 09:37:33 | 82.8523 | 0.00059 | 23.5570 | 154.2629 | 24.7993 | 14.96271 | – |
| 2026 May 05 17:57 | 2026 May 05 09:37:33 | 82.8523 | 0.00059 | 23.5570 | 154.2629 | 24.7993 | 14.96271 | – |
| 2026 May 04 17:57 | 2026 Apr 29 22:51:47 | 82.8541 | 0.00054 | 23.8886 | 168.3932 | 24.7993 | 14.96271 | – |
| 2026 May 03 17:57 | 2026 Apr 29 22:51:47 | 82.8541 | 0.00054 | 23.8886 | 168.3932 | 24.7993 | 14.96271 | – |
| 2026 May 02 17:57 | 2026 Apr 29 22:51:47 | 82.8541 | 0.00054 | 23.8886 | 168.3932 | 24.7993 | 14.96271 | – |
| 2026 May 01 17:56 | 2026 Apr 29 22:51:47 | 82.8541 | 0.00054 | 23.8886 | 168.3932 | 24.7993 | 14.96271 | – |
| 2026 Apr 30 17:56 | 2026 Apr 29 22:51:47 | 82.8541 | 0.00054 | 23.8886 | 168.3932 | 24.7993 | 14.96271 | – |
| 2026 Apr 29 17:57 | 2026 Apr 21 11:38:18 | 82.8564 | 0.00042 | 0.4035 | 193.0080 | 24.7993 | 14.96271 | – |
| 2026 Apr 28 17:56 | 2026 Apr 21 11:38:18 | 82.8564 | 0.00042 | 0.4035 | 193.0080 | 24.7993 | 14.96271 | – |
| 2026 Apr 27 17:58 | 2026 Apr 21 11:38:18 | 82.8564 | 0.00042 | 0.4035 | 193.0080 | 24.7993 | 14.96271 | – |
| 2026 Apr 26 17:58 | 2026 Apr 21 11:38:18 | 82.8564 | 0.00042 | 0.4035 | 193.0080 | 24.7993 | 14.96271 | – |
| 2026 Apr 25 17:58 | 2026 Apr 21 11:38:18 | 82.8564 | 0.00042 | 0.4035 | 193.0080 | 24.7993 | 14.96271 | – |
| 2026 Apr 24 17:59 | 2026 Apr 21 11:38:18 | 82.8564 | 0.00042 | 0.4035 | 193.0080 | 24.7993 | 14.96271 | – |
| 2026 Apr 23 17:57 | 2026 Apr 19 11:27:44 | 82.8561 | 0.00035 | 0.5255 | 182.1473 | 24.7993 | 14.96271 | – |
| 2026 Apr 22 17:57 | 2026 Apr 19 11:27:44 | 82.8561 | 0.00035 | 0.5255 | 182.1473 | 24.7993 | 14.96271 | – |
| 2026 Apr 21 17:57 | 2026 Apr 19 11:27:44 | 82.8561 | 0.00035 | 0.5255 | 182.1473 | 24.7993 | 14.96271 | – |
| 2026 Apr 20 17:57 | 2026 Apr 19 11:27:44 | 82.8561 | 0.00035 | 0.5255 | 182.1473 | 24.7993 | 14.96271 | – |
| 2026 Apr 19 17:58 | 2026 Apr 19 11:27:44 | 82.8561 | 0.00035 | 0.5255 | 182.1473 | 24.7993 | 14.96271 | – |
| 2026 Apr 18 17:56 | 2026 Apr 12 12:24:20 | 82.8554 | 0.00028 | 0.9483 | 231.3263 | 24.7993 | 14.96271 | – |
| 2026 Apr 16 17:57 | 2026 Apr 12 12:24:20 | 82.8554 | 0.00028 | 0.9483 | 231.3263 | 24.7993 | 14.96271 | – |
| 2026 Apr 14 17:57 | 2026 Apr 12 12:24:20 | 82.8554 | 0.00028 | 0.9483 | 231.3263 | 24.7993 | 14.96271 | – |
| 2026 Apr 13 17:57 | 2026 Apr 12 12:24:20 | 82.8554 | 0.00028 | 0.9483 | 231.3263 | 24.7993 | 14.96271 | – |
| 2026 Apr 12 17:57 | 2026 Apr 07 01:31:49 | 82.8586 | 0.00032 | 1.2797 | 270.7948 | 24.7993 | 14.96271 | – |
| 2026 Apr 11 17:57 | 2026 Apr 07 01:31:49 | 82.8586 | 0.00032 | 1.2797 | 270.7948 | 24.7993 | 14.96271 | – |